createdAt,value
2023-05-04T00:05:44.752Z,9.63
2023-05-04T00:15:47.804Z,9.54
2023-05-04T00:25:52.213Z,9.48
2023-05-04T00:35:55.751Z,9.31
2023-05-04T00:46:00.246Z,9.28
2023-05-04T00:56:04.111Z,9.25
2023-05-04T01:06:20.680Z,9.10
2023-05-04T01:16:23.761Z,9.00
2023-05-04T01:26:31.848Z,8.89
2023-05-04T01:36:37.201Z,8.81
2023-05-04T01:46:41.924Z,8.69
2023-05-04T01:56:45.190Z,8.55
2023-05-04T02:06:49.719Z,8.49
2023-05-04T02:16:53.849Z,8.43
2023-05-04T02:26:58.595Z,8.39
2023-05-04T02:37:01.670Z,8.28
2023-05-04T02:47:06.558Z,8.12
2023-05-04T02:57:09.478Z,8.02
2023-05-04T03:07:13.776Z,7.90
2023-05-04T03:17:16.808Z,7.75
2023-05-04T03:27:21.634Z,7.68
2023-05-04T03:37:24.868Z,7.62
2023-05-04T03:47:29.491Z,7.55
2023-05-04T03:57:32.807Z,7.46
2023-05-04T04:07:37.911Z,7.43
2023-05-04T04:17:41.877Z,7.36
2023-05-04T04:27:46.317Z,7.43
2023-05-04T04:37:49.342Z,7.52
2023-05-04T04:47:53.805Z,7.68
2023-05-04T04:57:56.799Z,7.82
2023-05-04T05:08:01.185Z,8.01
2023-05-04T05:18:04.257Z,8.14
2023-05-04T05:28:08.945Z,8.47
2023-05-04T05:38:13.178Z,8.63
2023-05-04T05:48:17.757Z,9.02
2023-05-04T05:58:20.925Z,9.36
2023-05-04T06:08:25.333Z,9.65
2023-05-04T06:18:28.372Z,9.96
2023-05-04T06:28:32.701Z,10.38
2023-05-04T06:38:37.894Z,10.88
2023-05-04T06:48:43.587Z,11.31
2023-05-04T06:58:46.594Z,11.75
2023-05-04T07:08:51.014Z,11.97
2023-05-04T07:18:54.023Z,12.40
2023-05-04T07:28:58.458Z,12.81
2023-05-04T07:39:02.980Z,13.52
2023-05-04T07:49:07.660Z,14.03
2023-05-04T07:59:10.762Z,14.46
2023-05-04T08:09:15.212Z,15.05
2023-05-04T08:19:20.132Z,15.42
2023-05-04T08:29:24.528Z,15.68
2023-05-04T08:39:27.796Z,15.99
2023-05-04T08:49:32.473Z,16.38
2023-05-04T08:59:37.401Z,16.72
2023-05-04T09:09:42.342Z,17.21
2023-05-04T09:19:45.618Z,17.65
2023-05-04T09:29:55.782Z,18.19
2023-05-04T09:40:00.176Z,18.65
2023-05-04T09:50:21.044Z,18.85
2023-05-04T10:00:24.843Z,19.06
2023-05-04T10:10:29.294Z,19.29
2023-05-04T10:20:49.486Z,19.68
2023-05-04T10:30:58.876Z,20.20
2023-05-04T10:41:02.577Z,20.40
2023-05-04T10:51:18.447Z,20.64
2023-05-04T11:01:22.832Z,20.94
2023-05-04T11:11:27.669Z,21.26
2023-05-04T11:21:30.830Z,21.42
2023-05-04T11:31:35.299Z,21.83
2023-05-04T11:41:38.670Z,22.02
2023-05-04T11:51:43.558Z,22.36
2023-05-04T12:01:47.995Z,22.57
2023-05-04T12:11:57.187Z,22.76
2023-05-04T12:22:02.481Z,23.32
2023-05-04T12:32:07.787Z,23.46
2023-05-04T12:42:10.914Z,24.05
2023-05-04T12:52:15.286Z,24.14
2023-05-04T13:02:18.386Z,24.07
2023-05-04T13:12:22.856Z,24.10
2023-05-04T13:22:27.210Z,24.02
2023-05-04T13:32:32.205Z,23.88
2023-05-04T13:42:37.019Z,23.83
2023-05-04T13:52:42.036Z,24.09
2023-05-04T14:02:45.363Z,24.08
2023-05-04T14:12:50.161Z,24.83
2023-05-04T14:22:53.242Z,25.41
2023-05-04T14:32:58.288Z,25.66
2023-05-04T14:43:01.795Z,25.41
2023-05-04T14:53:06.894Z,25.13
2023-05-04T15:03:11.084Z,25.45
2023-05-04T15:13:17.977Z,25.75
2023-05-04T15:23:21.471Z,25.43
2023-05-04T15:33:25.901Z,25.42
2023-05-04T15:43:29.114Z,24.86
2023-05-04T15:53:33.283Z,24.62
2023-05-04T16:03:36.477Z,24.08
2023-05-04T16:13:40.829Z,24.03
2023-05-04T16:23:43.835Z,24.05
2023-05-04T16:33:48.306Z,23.85
2023-05-04T16:43:51.445Z,23.58
2023-05-04T16:53:55.956Z,23.37
2023-05-04T17:03:59.241Z,23.34
2023-05-04T17:14:03.809Z,23.25
2023-05-04T17:24:07.267Z,23.19
2023-05-04T17:34:12.115Z,23.02
2023-05-04T17:44:16.415Z,23.14
2023-05-04T17:54:21.686Z,22.81
2023-05-04T18:04:24.983Z,22.53
2023-05-04T18:14:29.513Z,22.33
2023-05-04T18:24:33.958Z,21.95
2023-05-04T18:34:38.748Z,21.80
2023-05-04T18:44:41.781Z,21.47
2023-05-04T18:54:46.128Z,21.27
2023-05-04T19:04:49.256Z,21.03
2023-05-04T19:14:54.669Z,20.75
2023-05-04T19:24:59.241Z,20.55
2023-05-04T19:35:03.871Z,20.33
2023-05-04T19:45:10.769Z,20.03
2023-05-04T19:55:16.525Z,19.78
2023-05-04T20:05:19.761Z,19.64
2023-05-04T20:15:24.128Z,19.49
2023-05-04T20:25:27.702Z,19.39
2023-05-04T20:35:32.140Z,19.16
2023-05-04T20:45:35.299Z,18.82
2023-05-04T20:55:40.549Z,18.43
2023-05-04T21:05:43.839Z,18.37
2023-05-04T21:15:48.279Z,18.13
2023-05-04T21:25:51.338Z,17.95
2023-05-04T21:35:55.827Z,17.81
2023-05-04T21:45:58.654Z,17.72
2023-05-04T21:56:06.865Z,17.66
2023-05-04T22:06:09.916Z,17.66
2023-05-04T22:16:14.492Z,17.77
2023-05-04T22:26:17.726Z,17.68
2023-05-04T22:36:22.630Z,17.82
2023-05-04T22:46:28.539Z,17.94
2023-05-04T22:56:33.548Z,17.98
2023-05-04T23:06:38.614Z,18.15
2023-05-04T23:16:43.030Z,18.34
2023-05-04T23:26:45.877Z,18.45
2023-05-04T23:36:50.351Z,18.39
2023-05-04T23:46:53.356Z,18.31
2023-05-04T23:56:58.695Z,18.15
